KFOK/FOK METAR and TAF weather

Enter ICAO airport designator
Station Type Date Time Source
KFOK METAR 2019/04/19 07:53 UTC NOAA

KFOK 190753Z AUTO 20013G21KT 10SM BKN026 13/11 A2990 RMK AO2 SLP124 T01330111


Station Type Date Time Source
KFOK Decoded METAR 2019/04/19 07:53 UTC NOAA

THE GABRESKI AIRPORT, NY, United States (KFOK) 40-51N 072-37W 33M
Apr 19, 2019 - 03:53 AM EDT / 2019.04.19 0753 UTC
Wind: from the SSW (200 degrees) at 15 MPH (13 KT) gusting to 24 MPH (21 KT):0
Visibility: 10 mile(s):0
Sky conditions: mostly cloudy
Temperature: 55.9 F (13.3 C)
Dew Point: 52.0 F (11.1 C)
Relative Humidity: 86%
Pressure (altimeter): 29.9 in. Hg (1012 hPa)
ob: KFOK 190753Z AUTO 20013G21KT 10SM BKN026 13/11 A2990 RMK AO2 SLP124 T01330111
cycle: 8

Station Type Date Time Source
KFOK TAF UTC NOAA

Error!

Example: see airport list